Time;durP1;ratioP1;P1;durP2;ratioP2;P2;SDS_P1;SDS_P2;PMS_P1;PMS_P2;Temp;Humidity;BMP_temperature;BMP_pressure;BME280_temperature;BME280_humidity;BME280_pressure;Samples;Min_cycle;Max_cycle;Signal;HPM_P1;HPM_P2
2022/12/08 00:01:49;;;;;;;16.90;11.70;;;;;;;;;;6284130;22;20424;-73
2022/12/08 00:11:02;;;;;;;16.97;12.53;;;;;;;;;;6278871;22;20529;-75
2022/12/08 00:13:52;;;;;;;19.07;14.00;;;;;;;;;;6297193;22;20410;-73
2022/12/08 00:16:45;;;;;;;18.13;13.40;;;;;;;;;;6286091;22;20437;-74
2022/12/08 00:19:41;;;;;;;17.80;13.87;;;;;;;;;;6279643;22;20471;-73
2022/12/08 00:22:31;;;;;;;19.33;14.90;;;;;;;;;;6284949;22;20413;-73
2022/12/08 00:25:20;;;;;;;20.40;15.20;;;;;;;;;;6286078;22;20412;-73
2022/12/08 00:28:13;;;;;;;22.40;14.10;;;;;;;;;;6283289;22;20408;-75
2022/12/08 00:33:44;;;;;;;18.33;14.70;;;;;;;;;;6341840;22;20400;-75
2022/12/08 00:36:33;;;;;;;19.67;15.40;;;;;;;;;;6337755;22;20447;-75
2022/12/08 00:39:23;;;;;;;19.40;15.10;;;;;;;;;;6336426;22;20408;-75
2022/12/08 00:42:12;;;;;;;20.23;15.20;;;;;;;;;;6335741;22;20438;-75
2022/12/08 00:45:06;;;;;;;18.83;14.77;;;;;;;;;;6333068;22;20408;-78
2022/12/08 00:47:57;;;;;;;19.60;13.30;;;;;;;;;;6336543;22;20921;-75
2022/12/08 00:50:50;;;;;;;17.33;13.83;;;;;;;;;;6329700;22;20411;-75
2022/12/08 00:53:41;;;;;;;15.30;13.40;;;;;;;;;;6332007;22;20424;-75
2022/12/08 00:56:30;;;;;;;17.23;13.20;;;;;;;;;;6330308;22;20440;-75
2022/12/08 00:59:23;;;;;;;15.53;12.63;;;;;;;;;;6332538;22;20417;-75
2022/12/08 01:02:13;;;;;;;16.93;13.00;;;;;;;;;;6334671;22;20432;-75
2022/12/08 01:05:06;;;;;;;14.23;12.40;;;;;;;;;;6338788;22;20501;-75
2022/12/08 01:07:56;;;;;;;14.77;11.90;;;;;;;;;;6333490;22;20423;-74
2022/12/08 01:10:45;;;;;;;14.90;12.40;;;;;;;;;;6331869;22;20408;-75
2022/12/08 01:13:36;;;;;;;15.83;11.77;;;;;;;;;;6334638;22;20412;-75
2022/12/08 01:16:33;;;;;;;13.03;11.53;;;;;;;;;;6335103;22;20442;-75
2022/12/08 01:19:29;;;;;;;12.17;10.83;;;;;;;;;;6336796;22;20415;-75
2022/12/08 01:22:18;;;;;;;12.67;10.30;;;;;;;;;;6334415;22;20439;-75
2022/12/08 01:25:07;;;;;;;12.10;9.53;;;;;;;;;;6336370;22;20411;-75
2022/12/08 01:27:55;;;;;;;10.53;9.47;;;;;;;;;;6330944;22;20439;-74
2022/12/08 01:30:46;;;;;;;9.73;8.73;;;;;;;;;;6335385;22;20404;-76
2022/12/08 01:33:34;;;;;;;14.90;10.03;;;;;;;;;;6337528;22;20429;-75
2022/12/08 01:36:28;;;;;;;12.63;9.83;;;;;;;;;;6329264;22;20428;-74
2022/12/08 01:39:17;;;;;;;10.60;9.50;;;;;;;;;;6333482;22;20419;-76
2022/12/08 01:42:06;;;;;;;10.30;9.20;;;;;;;;;;6333286;22;20537;-74
2022/12/08 01:44:58;;;;;;;9.53;8.63;;;;;;;;;;6339265;22;20408;-75
2022/12/08 01:47:48;;;;;;;9.93;8.63;;;;;;;;;;6338544;22;20574;-75
2022/12/08 01:50:39;;;;;;;9.50;8.60;;;;;;;;;;6337592;22;20415;-75
2022/12/08 01:53:31;;;;;;;9.67;8.53;;;;;;;;;;6333690;22;20450;-75
2022/12/08 01:56:34;;;;;;;13.03;8.17;;;;;;;;;;6337523;22;20485;-75
2022/12/08 01:59:23;;;;;;;9.87;8.87;;;;;;;;;;6338856;22;20408;-75
2022/12/08 02:02:12;;;;;;;9.70;8.70;;;;;;;;;;6334877;22;20430;-75
2022/12/08 02:05:04;;;;;;;9.43;8.43;;;;;;;;;;6335538;22;20432;-75
2022/12/08 02:07:53;;;;;;;8.80;7.90;;;;;;;;;;6330766;22;20404;-75
2022/12/08 02:10:47;;;;;;;8.50;7.60;;;;;;;;;;6337647;22;20410;-74
2022/12/08 02:13:41;;;;;;;7.10;6.40;;;;;;;;;;6333129;22;20412;-76
2022/12/08 02:16:35;;;;;;;6.57;5.83;;;;;;;;;;6335687;22;21253;-76
2022/12/08 02:19:43;;;;;;;5.97;5.47;;;;;;;;;;6349760;22;20443;-75
2022/12/08 02:22:35;;;;;;;6.43;5.70;;;;;;;;;;6337802;22;20435;-75
2022/12/08 02:25:28;;;;;;;7.00;6.30;;;;;;;;;;6340679;22;20434;-74
2022/12/08 02:28:31;;;;;;;6.47;5.87;;;;;;;;;;6342748;22;20418;-75
2022/12/08 02:31:24;;;;;;;8.37;7.23;;;;;;;;;;6347074;22;20420;-75
2022/12/08 02:34:24;;;;;;;7.40;6.70;;;;;;;;;;6352335;22;20426;-74
2022/12/08 02:37:18;;;;;;;7.43;6.20;;;;;;;;;;6351163;22;20435;-75
2022/12/08 02:40:10;;;;;;;7.50;6.80;;;;;;;;;;6348243;22;20435;-77
2022/12/08 02:43:04;;;;;;;7.80;7.00;;;;;;;;;;6350410;22;20446;-75
2022/12/08 02:45:54;;;;;;;7.43;6.73;;;;;;;;;;6345903;22;20400;-75
2022/12/08 02:48:43;;;;;;;6.90;6.20;;;;;;;;;;6352331;22;20404;-75
2022/12/08 02:51:33;;;;;;;8.53;6.73;;;;;;;;;;6349946;22;20442;-76
2022/12/08 02:54:23;;;;;;;8.87;6.80;;;;;;;;;;6344250;22;20439;-75
2022/12/08 02:57:23;;;;;;;7.90;6.50;;;;;;;;;;6348422;22;20431;-75
2022/12/08 03:00:27;;;;;;;7.77;6.70;;;;;;;;;;6350899;22;20411;-76
2022/12/08 03:03:31;;;;;;;8.33;6.90;;;;;;;;;;6349188;22;20442;-75
2022/12/08 03:06:25;;;;;;;7.60;6.80;;;;;;;;;;6350807;22;20427;-74
2022/12/08 03:09:20;;;;;;;6.80;6.10;;;;;;;;;;6348676;22;20409;-75
2022/12/08 03:12:13;;;;;;;9.27;6.53;;;;;;;;;;6350572;22;20438;-75
2022/12/08 03:15:08;;;;;;;7.30;6.60;;;;;;;;;;6350792;22;20408;-76
2022/12/08 03:18:02;;;;;;;9.13;6.77;;;;;;;;;;6349928;22;20471;-75
2022/12/08 03:20:51;;;;;;;7.90;7.10;;;;;;;;;;6357753;22;20414;-75
2022/12/08 03:23:41;;;;;;;7.47;6.77;;;;;;;;;;6349612;22;20408;-76
2022/12/08 03:26:35;;;;;;;8.57;6.57;;;;;;;;;;6350752;22;20422;-75
2022/12/08 03:29:28;;;;;;;7.73;6.27;;;;;;;;;;6350357;22;20408;-75
2022/12/08 03:32:23;;;;;;;6.87;6.27;;;;;;;;;;6345173;22;20438;-74
2022/12/08 03:35:14;;;;;;;6.00;5.50;;;;;;;;;;6346468;22;20411;-75
2022/12/08 03:38:09;;;;;;;6.67;5.70;;;;;;;;;;6346825;22;20435;-76
2022/12/08 03:41:19;;;;;;;6.80;6.10;;;;;;;;;;6346069;22;20403;-74
2022/12/08 03:44:12;;;;;;;5.60;5.10;;;;;;;;;;6346906;22;20414;-75
2022/12/08 03:47:03;;;;;;;5.40;4.90;;;;;;;;;;6344684;22;20791;-75
2022/12/08 03:49:52;;;;;;;6.10;5.60;;;;;;;;;;6347066;22;20497;-75
2022/12/08 03:52:49;;;;;;;6.43;5.83;;;;;;;;;;6348498;22;20431;-77
2022/12/08 03:55:38;;;;;;;6.17;5.57;;;;;;;;;;6347469;22;20410;-75
2022/12/08 03:58:32;;;;;;;5.50;5.00;;;;;;;;;;6347084;22;20429;-75
2022/12/08 04:01:26;;;;;;;5.53;4.67;;;;;;;;;;6349348;22;20531;-76
2022/12/08 04:04:17;;;;;;;5.23;4.73;;;;;;;;;;6347117;22;20495;-76
2022/12/08 04:07:07;;;;;;;8.87;5.40;;;;;;;;;;6347502;22;20414;-75
2022/12/08 04:09:59;;;;;;;5.77;4.67;;;;;;;;;;6344861;22;20416;-75
2022/12/08 04:12:47;;;;;;;6.07;5.47;;;;;;;;;;6348386;22;20430;-75
2022/12/08 04:15:39;;;;;;;6.00;5.40;;;;;;;;;;6347305;22;20415;-75
2022/12/08 04:18:29;;;;;;;5.97;4.93;;;;;;;;;;6347727;22;20435;-75
2022/12/08 04:21:19;;;;;;;6.23;5.63;;;;;;;;;;6348725;22;20432;-75
2022/12/08 04:24:13;;;;;;;5.83;5.20;;;;;;;;;;6346478;22;20486;-75
2022/12/08 04:27:06;;;;;;;5.50;5.00;;;;;;;;;;6347373;22;20650;-75
2022/12/08 04:29:59;;;;;;;5.70;5.20;;;;;;;;;;6349567;22;20415;-74
2022/12/08 04:32:48;;;;;;;4.83;4.43;;;;;;;;;;6347458;22;20436;-76
2022/12/08 04:35:39;;;;;;;5.30;4.80;;;;;;;;;;6350568;22;20462;-75
2022/12/08 04:38:28;;;;;;;5.40;4.90;;;;;;;;;;6346999;22;20431;-75
2022/12/08 04:41:18;;;;;;;5.70;5.20;;;;;;;;;;6350363;22;20415;-75
2022/12/08 04:44:06;;;;;;;5.03;4.50;;;;;;;;;;6349463;22;20420;-75
2022/12/08 04:47:01;;;;;;;5.30;4.80;;;;;;;;;;6352598;22;20410;-75
2022/12/08 04:49:52;;;;;;;5.33;4.80;;;;;;;;;;6352763;22;20412;-75
2022/12/08 04:52:44;;;;;;;4.13;3.80;;;;;;;;;;6349579;22;20431;-76
2022/12/08 04:55:33;;;;;;;4.07;3.77;;;;;;;;;;6346000;22;20434;-75
2022/12/08 04:58:23;;;;;;;4.40;4.00;;;;;;;;;;6346312;22;20462;-75
2022/12/08 05:01:14;;;;;;;4.17;3.87;;;;;;;;;;6354689;22;20419;-76
2022/12/08 05:04:10;;;;;;;4.73;4.00;;;;;;;;;;6355309;22;20416;-76
2022/12/08 05:07:00;;;;;;;4.03;3.63;;;;;;;;;;6350645;22;20414;-76
2022/12/08 05:09:50;;;;;;;5.00;4.17;;;;;;;;;;6346394;22;20419;-77
2022/12/08 05:12:41;;;;;;;4.27;3.87;;;;;;;;;;6345586;22;20428;-74
2022/12/08 05:15:31;;;;;;;4.77;4.27;;;;;;;;;;6347458;22;20416;-74
2022/12/08 05:18:19;;;;;;;4.00;3.70;;;;;;;;;;6348589;22;20783;-75
2022/12/08 05:21:09;;;;;;;4.10;3.80;;;;;;;;;;6347205;22;20400;-76
2022/12/08 05:23:59;;;;;;;3.77;3.47;;;;;;;;;;6346069;22;20423;-74
2022/12/08 05:26:49;;;;;;;3.80;3.50;;;;;;;;;;6349293;22;20895;-75
2022/12/08 05:29:40;;;;;;;3.40;3.10;;;;;;;;;;6359817;22;20408;-75
2022/12/08 05:32:31;;;;;;;3.77;3.47;;;;;;;;;;6336627;22;20674;-76
2022/12/08 05:35:21;;;;;;;4.70;4.20;;;;;;;;;;6345056;22;20415;-75
2022/12/08 05:38:10;;;;;;;4.10;3.80;;;;;;;;;;6345352;22;20440;-75
2022/12/08 05:41:06;;;;;;;4.20;3.80;;;;;;;;;;6347935;22;20411;-75
2022/12/08 05:43:56;;;;;;;5.93;3.47;;;;;;;;;;6347600;22;20789;-75
2022/12/08 05:46:45;;;;;;;4.30;3.90;;;;;;;;;;6343407;22;20404;-75
2022/12/08 05:49:36;;;;;;;4.43;4.03;;;;;;;;;;6344802;22;20434;-75
2022/12/08 05:52:28;;;;;;;3.93;3.60;;;;;;;;;;6336398;22;20429;-75
2022/12/08 05:55:19;;;;;;;4.17;3.80;;;;;;;;;;6337925;22;20562;-75
2022/12/08 05:58:13;;;;;;;3.93;3.53;;;;;;;;;;6344724;22;20423;-75
2022/12/08 06:01:05;;;;;;;4.07;3.77;;;;;;;;;;6344520;22;20419;-77
2022/12/08 06:03:54;;;;;;;4.20;3.80;;;;;;;;;;6349055;22;20411;-76
2022/12/08 06:06:43;;;;;;;3.93;3.63;;;;;;;;;;6344316;22;20419;-75
2022/12/08 06:09:33;;;;;;;3.80;3.47;;;;;;;;;;6344682;22;20418;-73
2022/12/08 06:12:23;;;;;;;3.50;3.20;;;;;;;;;;6342051;22;20433;-75
2022/12/08 06:15:17;;;;;;;3.20;3.00;;;;;;;;;;6336413;22;20412;-76
2022/12/08 06:18:11;;;;;;;3.00;2.80;;;;;;;;;;6333520;22;20503;-74
2022/12/08 06:21:09;;;;;;;2.90;2.70;;;;;;;;;;6336364;22;20422;-75
2022/12/08 06:23:58;;;;;;;2.50;2.30;;;;;;;;;;6338407;22;20897;-75
2022/12/08 06:26:51;;;;;;;2.47;2.27;;;;;;;;;;6349588;22;20437;-75
2022/12/08 06:29:42;;;;;;;2.60;2.30;;;;;;;;;;6344756;22;20629;-75
2022/12/08 06:32:30;;;;;;;2.40;2.23;;;;;;;;;;6345762;22;20447;-74
2022/12/08 06:35:25;;;;;;;2.67;2.47;;;;;;;;;;6314536;22;20917;-74
2022/12/08 06:38:15;;;;;;;2.53;2.33;;;;;;;;;;6298921;22;20440;-74
2022/12/08 06:41:05;;;;;;;2.63;2.43;;;;;;;;;;6302046;22;20419;-73
2022/12/08 06:43:56;;;;;;;2.80;2.60;;;;;;;;;;6283162;22;20438;-74
2022/12/08 06:46:50;;;;;;;3.37;3.07;;;;;;;;;;6268958;22;20417;-73
2022/12/08 06:49:42;;;;;;;3.10;2.90;;;;;;;;;;6267058;22;20761;-74
2022/12/08 06:52:46;;;;;;;;;;;;;;;;;;;;;
2022/12/08 06:55:56;;;;;;;3.13;2.83;;;;;;;;;;6272429;22;20484;-72
2022/12/08 06:58:47;;;;;;;4.27;3.87;;;;;;;;;;6268822;22;20437;-73
2022/12/08 07:01:50;;;;;;;4.57;4.20;;;;;;;;;;6267531;22;20455;-72
2022/12/08 07:04:42;;;;;;;4.30;3.90;;;;;;;;;;6272260;22;20430;-74
2022/12/08 07:07:35;;;;;;;5.00;4.60;;;;;;;;;;6269282;22;20436;-73
2022/12/08 07:10:26;;;;;;;4.97;4.47;;;;;;;;;;6270380;22;20433;-73
2022/12/08 07:13:18;;;;;;;4.83;4.33;;;;;;;;;;6279583;22;20447;-73
2022/12/08 07:16:07;;;;;;;5.43;4.83;;;;;;;;;;6271129;22;20413;-73
2022/12/08 07:19:01;;;;;;;6.40;5.70;;;;;;;;;;6273499;22;20453;-73
2022/12/08 07:21:50;;;;;;;7.10;5.67;;;;;;;;;;6283626;22;20410;-73
2022/12/08 07:24:39;;;;;;;6.17;5.00;;;;;;;;;;6266269;22;21234;-73
2022/12/08 07:27:29;;;;;;;5.67;5.17;;;;;;;;;;6282353;22;20811;-73
2022/12/08 07:30:20;;;;;;;6.10;4.73;;;;;;;;;;6271450;22;20413;-73
2022/12/08 07:33:11;;;;;;;6.43;5.20;;;;;;;;;;6271560;22;20942;-74
2022/12/08 07:36:00;;;;;;;5.80;5.20;;;;;;;;;;6267446;22;20406;-73
2022/12/08 07:38:53;;;;;;;5.53;5.03;;;;;;;;;;6280598;22;21048;-72
2022/12/08 07:41:44;;;;;;;4.97;4.47;;;;;;;;;;6282065;22;21056;-72
2022/12/08 07:44:42;;;;;;;5.93;4.90;;;;;;;;;;6271400;22;20434;-73
2022/12/08 07:47:35;;;;;;;5.50;4.80;;;;;;;;;;6270361;22;20402;-73
2022/12/08 07:50:24;;;;;;;6.40;5.10;;;;;;;;;;6270814;22;20406;-73
2022/12/08 07:53:13;;;;;;;5.57;5.07;;;;;;;;;;6266314;22;20434;-72
2022/12/08 07:56:01;;;;;;;9.47;5.93;;;;;;;;;;6261397;22;20433;-72
2022/12/08 07:58:55;;;;;;;6.70;5.73;;;;;;;;;;6270307;22;21025;-72
2022/12/08 08:01:47;;;;;;;7.07;6.37;;;;;;;;;;6266331;22;20505;-73
2022/12/08 08:04:58;;;;;;;6.93;6.20;;;;;;;;;;6268976;22;20414;-73
2022/12/08 08:07:49;;;;;;;6.83;6.00;;;;;;;;;;6265887;22;21095;-72
2022/12/08 08:10:38;;;;;;;7.30;6.60;;;;;;;;;;6265768;22;20456;-73
2022/12/08 08:13:29;;;;;;;7.27;6.50;;;;;;;;;;6269164;22;20436;-72
2022/12/08 08:16:19;;;;;;;6.40;5.50;;;;;;;;;;6269324;22;20933;-73
2022/12/08 08:19:09;;;;;;;6.57;5.87;;;;;;;;;;6280093;22;20571;-72
2022/12/08 08:22:01;;;;;;;6.83;6.00;;;;;;;;;;6269841;22;20409;-72
2022/12/08 08:24:49;;;;;;;6.83;6.20;;;;;;;;;;6269529;22;20855;-74
2022/12/08 08:27:40;;;;;;;8.50;6.30;;;;;;;;;;6270175;22;20514;-73
2022/12/08 08:30:31;;;;;;;7.73;6.20;;;;;;;;;;6271562;22;20412;-73
2022/12/08 08:33:21;;;;;;;6.53;5.63;;;;;;;;;;6270406;22;20951;-72
2022/12/08 08:36:12;;;;;;;5.63;5.13;;;;;;;;;;6264630;22;20498;-72
2022/12/08 08:39:07;;;;;;;6.13;5.57;;;;;;;;;;6265513;22;20434;-73
2022/12/08 08:42:08;;;;;;;5.30;4.80;;;;;;;;;;6267329;22;20406;-74
2022/12/08 08:44:56;;;;;;;5.03;4.27;;;;;;;;;;6267602;22;20480;-73
2022/12/08 08:47:45;;;;;;;4.87;4.37;;;;;;;;;;6266675;22;20410;-73
2022/12/08 08:50:38;;;;;;;5.53;4.90;;;;;;;;;;6266936;22;20410;-74
2022/12/08 08:53:29;;;;;;;6.80;5.20;;;;;;;;;;6271270;22;20456;-73
2022/12/08 08:56:20;;;;;;;4.70;4.30;;;;;;;;;;6266485;22;20429;-73
2022/12/08 08:59:10;;;;;;;4.83;4.33;;;;;;;;;;6267660;22;20445;-73
2022/12/08 09:01:58;;;;;;;4.93;4.43;;;;;;;;;;6270856;22;20840;-73
2022/12/08 09:04:48;;;;;;;4.30;3.87;;;;;;;;;;6277338;22;20816;-72
2022/12/08 09:07:37;;;;;;;4.57;4.07;;;;;;;;;;6263447;22;20409;-74
2022/12/08 09:10:27;;;;;;;4.37;3.97;;;;;;;;;;6268967;22;20406;-74
2022/12/08 09:13:16;;;;;;;4.83;4.20;;;;;;;;;;6268315;22;20512;-72
2022/12/08 09:16:08;;;;;;;4.40;4.00;;;;;;;;;;6265041;22;20424;-74
2022/12/08 09:18:57;;;;;;;4.70;4.20;;;;;;;;;;6273539;22;20491;-74
2022/12/08 09:21:48;;;;;;;4.40;3.80;;;;;;;;;;6278429;22;20410;-72
2022/12/08 09:24:38;;;;;;;4.33;3.93;;;;;;;;;;6276659;22;20467;-72
2022/12/08 09:27:28;;;;;;;4.63;4.13;;;;;;;;;;6268160;22;20421;-73
2022/12/08 09:30:20;;;;;;;5.33;4.83;;;;;;;;;;6268287;22;20434;-73
2022/12/08 09:33:11;;;;;;;4.43;3.87;;;;;;;;;;6263424;22;20444;-74
2022/12/08 09:36:04;;;;;;;4.50;4.10;;;;;;;;;;6266724;22;20418;-74
2022/12/08 09:38:53;;;;;;;5.63;4.37;;;;;;;;;;6266059;22;20411;-73
2022/12/08 09:41:45;;;;;;;5.30;4.53;;;;;;;;;;6269241;22;20781;-73
2022/12/08 09:44:54;;;;;;;5.83;5.07;;;;;;;;;;6265709;22;20441;-74
2022/12/08 09:47:50;;;;;;;4.67;4.20;;;;;;;;;;6268923;22;20542;-73
2022/12/08 09:50:52;;;;;;;5.13;4.60;;;;;;;;;;6266188;22;20412;-74
2022/12/08 09:53:49;;;;;;;4.77;4.20;;;;;;;;;;6270504;22;20580;-75
2022/12/08 09:56:42;;;;;;;5.40;4.90;;;;;;;;;;6270208;22;20425;-74
2022/12/08 09:59:35;;;;;;;5.00;4.50;;;;;;;;;;6266524;22;20445;-75
2022/12/08 10:02:33;;;;;;;5.60;4.53;;;;;;;;;;6266644;22;20405;-73
2022/12/08 10:05:28;;;;;;;5.60;4.80;;;;;;;;;;6268546;22;20417;-74
2022/12/08 10:08:24;;;;;;;5.40;4.47;;;;;;;;;;6265229;22;20491;-74
2022/12/08 10:11:14;;;;;;;6.27;4.53;;;;;;;;;;6266305;22;20837;-73
2022/12/08 10:14:11;;;;;;;4.87;4.43;;;;;;;;;;6268632;22;20425;-74
2022/12/08 10:17:01;;;;;;;5.10;4.60;;;;;;;;;;6272657;22;21200;-74
2022/12/08 10:19:56;;;;;;;5.20;4.40;;;;;;;;;;6267000;22;20927;-73
2022/12/08 10:22:47;;;;;;;5.30;4.30;;;;;;;;;;6266340;22;20434;-73
2022/12/08 10:25:37;;;;;;;5.63;4.73;;;;;;;;;;6265152;22;20424;-73
2022/12/08 10:28:26;;;;;;;4.83;4.33;;;;;;;;;;6268315;22;20415;-74
2022/12/08 10:31:25;;;;;;;5.57;5.07;;;;;;;;;;6267885;22;20417;-73
2022/12/08 10:34:22;;;;;;;5.10;4.33;;;;;;;;;;6266927;22;20438;-73
2022/12/08 10:37:17;;;;;;;5.43;4.83;;;;;;;;;;6267945;22;20792;-73
2022/12/08 10:40:11;;;;;;;5.30;4.40;;;;;;;;;;6268441;22;20437;-74
2022/12/08 10:43:05;;;;;;;4.93;4.43;;;;;;;;;;6277334;22;20437;-73
2022/12/08 10:46:08;;;;;;;4.90;4.40;;;;;;;;;;6266990;22;20754;-76
2022/12/08 10:49:11;;;;;;;5.23;4.73;;;;;;;;;;6267819;22;20413;-74
2022/12/08 10:52:09;;;;;;;6.03;5.23;;;;;;;;;;6278249;22;20416;-73
2022/12/08 10:55:01;;;;;;;5.77;4.73;;;;;;;;;;6268336;22;20416;-74
2022/12/08 10:57:49;;;;;;;4.80;4.40;;;;;;;;;;6266364;22;20523;-75
2022/12/08 11:00:42;;;;;;;5.00;4.50;;;;;;;;;;6268882;22;20448;-73
2022/12/08 11:03:39;;;;;;;5.67;4.57;;;;;;;;;;6280460;22;20439;-73
2022/12/08 11:06:32;;;;;;;4.70;4.20;;;;;;;;;;6269496;22;20421;-73
2022/12/08 11:09:30;;;;;;;4.57;3.93;;;;;;;;;;6263545;22;20420;-73
2022/12/08 11:12:27;;;;;;;4.17;3.67;;;;;;;;;;6266652;22;20414;-73
2022/12/08 11:15:16;;;;;;;4.57;4.00;;;;;;;;;;6269164;22;20891;-75
2022/12/08 11:18:22;;;;;;;4.23;3.80;;;;;;;;;;6268289;22;20410;-74
2022/12/08 11:21:12;;;;;;;4.10;3.70;;;;;;;;;;6267420;22;20441;-73
2022/12/08 11:24:10;;;;;;;4.33;3.93;;;;;;;;;;6280629;22;20425;-73
2022/12/08 11:27:01;;;;;;;5.27;4.60;;;;;;;;;;6269096;22;20414;-73
2022/12/08 11:29:55;;;;;;;5.47;4.67;;;;;;;;;;6270847;22;20952;-73
2022/12/08 11:32:58;;;;;;;4.87;4.03;;;;;;;;;;6268110;22;20445;-74
2022/12/08 11:35:50;;;;;;;4.30;3.90;;;;;;;;;;6277987;22;20437;-73
2022/12/08 11:38:41;;;;;;;5.73;4.30;;;;;;;;;;6266305;22;20414;-75
2022/12/08 11:41:37;;;;;;;5.03;4.37;;;;;;;;;;6278539;22;21034;-72
2022/12/08 11:44:29;;;;;;;5.13;4.63;;;;;;;;;;6271466;22;20430;-73
2022/12/08 11:47:25;;;;;;;14.20;5.03;;;;;;;;;;6276082;22;21003;-75
2022/12/08 11:50:18;;;;;;;7.40;4.30;;;;;;;;;;6279258;22;21127;-75
2022/12/08 11:53:11;;;;;;;5.80;5.27;;;;;;;;;;6269338;22;20434;-72
2022/12/08 11:56:06;;;;;;;5.57;4.77;;;;;;;;;;6268548;22;20417;-72
2022/12/08 11:58:56;;;;;;;5.50;5.00;;;;;;;;;;6263051;22;20473;-72
2022/12/08 12:01:50;;;;;;;6.07;5.47;;;;;;;;;;6264341;22;20445;-72
2022/12/08 12:04:44;;;;;;;6.10;4.97;;;;;;;;;;6267710;22;20479;-73
2022/12/08 12:07:47;;;;;;;5.40;4.90;;;;;;;;;;6268799;22;20414;-74
2022/12/08 12:10:44;;;;;;;6.20;5.20;;;;;;;;;;6269787;22;20412;-74
2022/12/08 12:13:42;;;;;;;6.53;5.57;;;;;;;;;;6266671;22;20434;-74
2022/12/08 12:16:47;;;;;;;5.90;5.30;;;;;;;;;;6267304;22;20404;-74
2022/12/08 12:19:37;;;;;;;6.63;5.70;;;;;;;;;;6269546;22;20423;-74
2022/12/08 12:22:36;;;;;;;6.17;4.87;;;;;;;;;;6268362;22;20406;-75
2022/12/08 12:25:26;;;;;;;6.50;5.00;;;;;;;;;;6268354;22;20419;-75
2022/12/08 12:28:20;;;;;;;7.10;5.53;;;;;;;;;;6265977;22;20406;-75
2022/12/08 12:31:12;;;;;;;6.23;5.57;;;;;;;;;;6262004;22;20406;-75
2022/12/08 12:34:08;;;;;;;5.73;5.13;;;;;;;;;;6282288;22;20443;-74
2022/12/08 12:37:01;;;;;;;5.90;5.20;;;;;;;;;;6346220;22;20401;-74
2022/12/08 12:39:59;;;;;;;5.53;5.03;;;;;;;;;;6356142;22;20508;-74
2022/12/08 12:42:49;;;;;;;7.37;5.73;;;;;;;;;;6341923;22;20428;-74
2022/12/08 12:45:42;;;;;;;6.23;5.63;;;;;;;;;;6358296;22;20433;-74
2022/12/08 12:48:33;;;;;;;7.17;6.10;;;;;;;;;;6351861;22;21029;-75
2022/12/08 12:51:44;;;;;;;6.47;5.80;;;;;;;;;;6349664;22;20404;-75
2022/12/08 12:54:35;;;;;;;6.10;5.50;;;;;;;;;;6346047;22;20925;-77
2022/12/08 12:57:36;;;;;;;6.90;5.83;;;;;;;;;;6347992;22;20452;-74
2022/12/08 13:00:35;;;;;;;6.20;5.53;;;;;;;;;;6342408;22;20421;-74
2022/12/08 13:03:28;;;;;;;6.50;5.60;;;;;;;;;;6338166;22;20409;-76
2022/12/08 13:06:23;;;;;;;6.70;5.57;;;;;;;;;;6356622;22;20444;-75
2022/12/08 13:09:35;;;;;;;6.50;5.60;;;;;;;;;;6343191;22;20406;-75
2022/12/08 13:12:25;;;;;;;9.60;7.33;;;;;;;;;;6348103;22;20415;-75
2022/12/08 13:15:21;;;;;;;6.93;5.97;;;;;;;;;;6355406;22;20439;-76
2022/12/08 13:18:22;;;;;;;7.33;6.63;;;;;;;;;;6342719;22;20405;-76
2022/12/08 13:21:18;;;;;;;7.40;6.37;;;;;;;;;;6346306;22;20443;-75
2022/12/08 13:24:18;;;;;;;7.87;6.50;;;;;;;;;;6347676;22;20493;-76
2022/12/08 13:27:22;;;;;;;7.50;6.13;;;;;;;;;;6357287;22;20419;-76
2022/12/08 13:30:29;;;;;;;7.30;6.40;;;;;;;;;;6358069;22;20792;-76
2022/12/08 13:33:34;;;;;;;6.27;5.63;;;;;;;;;;6343811;22;20419;-75
2022/12/08 13:36:26;;;;;;;6.47;5.63;;;;;;;;;;6341087;22;20905;-76
2022/12/08 13:39:22;;;;;;;6.73;6.00;;;;;;;;;;6340234;22;20433;-75
2022/12/08 13:42:16;;;;;;;5.53;5.03;;;;;;;;;;6340598;22;20433;-76
2022/12/08 13:45:17;;;;;;;6.47;5.87;;;;;;;;;;6347874;22;20523;-76
2022/12/08 13:48:29;;;;;;;6.63;6.03;;;;;;;;;;6346102;22;20423;-75
2022/12/08 13:51:42;;;;;;;6.40;5.87;;;;;;;;;;6343833;22;20950;-75
2022/12/08 13:54:55;;;;;;;6.70;5.90;;;;;;;;;;6346048;22;20429;-73
2022/12/08 13:58:06;;;;;;;6.20;5.60;;;;;;;;;;6340096;22;20408;-75
2022/12/08 14:00:57;;;;;;;7.27;6.30;;;;;;;;;;6344986;22;20420;-75
2022/12/08 14:03:48;;;;;;;6.10;5.50;;;;;;;;;;6345134;22;20436;-75
2022/12/08 14:07:00;;;;;;;7.10;6.00;;;;;;;;;;6344762;22;20408;-75
2022/12/08 14:09:49;;;;;;;7.70;6.27;;;;;;;;;;6353086;22;20426;-75
2022/12/08 14:12:42;;;;;;;6.90;6.13;;;;;;;;;;6345966;22;20404;-75
2022/12/08 14:15:38;;;;;;;6.43;5.40;;;;;;;;;;6341504;22;20435;-75
2022/12/08 14:18:32;;;;;;;7.20;6.50;;;;;;;;;;6346802;22;20407;-76
2022/12/08 14:21:32;;;;;;;6.90;5.90;;;;;;;;;;6347254;22;20440;-75
2022/12/08 14:24:30;;;;;;;7.40;5.83;;;;;;;;;;6331346;22;21251;-75
2022/12/08 14:27:27;;;;;;;7.47;6.43;;;;;;;;;;6342741;22;20412;-75
2022/12/08 14:30:20;;;;;;;6.30;5.70;;;;;;;;;;6339097;22;20522;-75
2022/12/08 14:33:18;;;;;;;6.43;5.63;;;;;;;;;;6342517;22;20402;-75
2022/12/08 14:36:15;;;;;;;7.33;6.13;;;;;;;;;;6345347;22;20411;-76
2022/12/08 14:39:04;;;;;;;7.37;6.63;;;;;;;;;;6337143;22;20411;-75
2022/12/08 14:42:03;;;;;;;6.40;5.80;;;;;;;;;;6344247;22;20432;-75
2022/12/08 14:44:59;;;;;;;6.97;5.63;;;;;;;;;;6349810;22;20424;-75
2022/12/08 14:47:48;;;;;;;6.60;5.90;;;;;;;;;;6344633;22;20419;-75
2022/12/08 14:50:41;;;;;;;7.70;6.50;;;;;;;;;;6345998;22;20477;-74
2022/12/08 14:53:38;;;;;;;7.93;6.53;;;;;;;;;;6344219;22;20417;-75
2022/12/08 14:56:32;;;;;;;7.70;6.40;;;;;;;;;;6339670;22;20412;-75
2022/12/08 14:59:28;;;;;;;8.10;6.90;;;;;;;;;;6345082;22;20412;-75
2022/12/08 15:02:33;;;;;;;6.57;5.97;;;;;;;;;;6344129;22;20440;-75
2022/12/08 15:05:22;;;;;;;6.97;6.27;;;;;;;;;;6350500;22;20424;-76
2022/12/08 15:08:18;;;;;;;6.80;5.73;;;;;;;;;;6346232;22;20844;-75
2022/12/08 15:11:14;;;;;;;6.80;6.10;;;;;;;;;;6342833;22;20498;-75
2022/12/08 15:14:04;;;;;;;7.83;7.03;;;;;;;;;;6347269;22;20771;-76
2022/12/08 15:16:56;;;;;;;8.47;6.37;;;;;;;;;;6345510;22;20730;-75
2022/12/08 15:19:55;;;;;;;7.50;6.23;;;;;;;;;;6347050;22;20428;-75
2022/12/08 15:22:44;;;;;;;7.37;6.67;;;;;;;;;;6348344;22;20450;-76
2022/12/08 15:25:35;;;;;;;8.03;7.10;;;;;;;;;;6356404;22;20439;-76
2022/12/08 15:28:25;;;;;;;8.27;6.90;;;;;;;;;;6343230;22;20441;-75
2022/12/08 15:31:18;;;;;;;7.20;6.43;;;;;;;;;;6353963;22;20411;-74
2022/12/08 15:34:12;;;;;;;7.50;6.80;;;;;;;;;;6333853;22;20812;-75
2022/12/08 15:37:01;;;;;;;8.60;7.80;;;;;;;;;;6343252;22;20408;-74
2022/12/08 15:39:52;;;;;;;9.80;8.80;;;;;;;;;;6339581;22;20417;-75
2022/12/08 15:42:42;;;;;;;9.93;8.27;;;;;;;;;;6339087;22;20432;-74
2022/12/08 15:45:32;;;;;;;9.90;8.90;;;;;;;;;;6343163;22;20428;-74
2022/12/08 15:48:23;;;;;;;8.40;7.33;;;;;;;;;;6347005;22;20408;-76
2022/12/08 15:51:12;;;;;;;8.10;7.30;;;;;;;;;;6338303;22;20419;-76
2022/12/08 15:54:03;;;;;;;10.20;8.57;;;;;;;;;;6345791;22;20434;-75
2022/12/08 15:56:53;;;;;;;11.13;8.20;;;;;;;;;;6344401;22;20409;-76
2022/12/08 16:00:05;;;;;;;9.50;8.50;;;;;;;;;;6342268;22;20475;-77
2022/12/08 16:03:26;;;;;;;13.63;11.07;;;;;;;;;;6339313;22;20436;-76
2022/12/08 16:06:36;;;;;;;11.50;10.30;;;;;;;;;;6344729;22;20769;-76
2022/12/08 16:09:52;;;;;;;10.17;9.07;;;;;;;;;;6343771;22;20419;-75
2022/12/08 16:16:20;;;;;;;11.63;9.90;;;;;;;;;;6345699;22;20420;-75
2022/12/08 16:19:18;;;;;;;12.30;11.00;;;;;;;;;;6341856;22;20407;-75
2022/12/08 16:22:15;;;;;;;12.07;10.70;;;;;;;;;;6343075;22;20418;-75
2022/12/08 16:25:28;;;;;;;14.40;10.83;;;;;;;;;;6341961;22;20429;-76
2022/12/08 16:28:37;;;;;;;12.27;9.60;;;;;;;;;;6340875;22;20936;-76
2022/12/08 16:31:41;;;;;;;11.33;9.73;;;;;;;;;;6342777;22;20410;-75
2022/12/08 16:34:32;;;;;;;12.40;10.50;;;;;;;;;;6346466;22;21346;-76
2022/12/08 16:37:25;;;;;;;12.47;11.03;;;;;;;;;;6346871;22;20411;-75
2022/12/08 16:40:14;;;;;;;13.10;11.40;;;;;;;;;;6345495;22;20410;-76
2022/12/08 16:43:03;;;;;;;12.70;10.70;;;;;;;;;;6344606;22;20432;-76
2022/12/08 16:45:55;;;;;;;12.13;9.97;;;;;;;;;;6353393;22;20408;-76
2022/12/08 16:48:46;;;;;;;12.00;9.90;;;;;;;;;;6343578;22;20415;-76
2022/12/08 16:51:35;;;;;;;14.17;9.20;;;;;;;;;;6349168;22;20407;-75
2022/12/08 16:54:29;;;;;;;12.87;11.50;;;;;;;;;;6347424;22;20459;-75
2022/12/08 16:57:18;;;;;;;10.70;8.97;;;;;;;;;;6339213;22;20657;-76
2022/12/08 17:00:10;;;;;;;14.03;10.67;;;;;;;;;;6339113;22;20417;-75
2022/12/08 17:02:59;;;;;;;13.30;11.87;;;;;;;;;;6347914;22;20758;-76
2022/12/08 17:05:47;;;;;;;17.03;13.80;;;;;;;;;;6343444;22;20408;-75
2022/12/08 17:08:38;;;;;;;16.30;13.10;;;;;;;;;;6335576;22;20419;-74
2022/12/08 17:11:31;;;;;;;17.17;13.43;;;;;;;;;;6339864;22;20415;-76
2022/12/08 17:14:29;;;;;;;18.70;14.20;;;;;;;;;;6344365;22;20519;-75
2022/12/08 17:17:18;;;;;;;19.50;15.07;;;;;;;;;;6345343;22;20415;-76
2022/12/08 17:20:08;;;;;;;18.70;14.93;;;;;;;;;;6341290;22;20405;-75
2022/12/08 17:22:57;;;;;;;18.47;13.70;;;;;;;;;;6345708;22;20432;-75
2022/12/08 17:25:57;;;;;;;15.90;13.57;;;;;;;;;;6353958;22;20438;-76
2022/12/08 17:28:53;;;;;;;14.73;12.20;;;;;;;;;;6341414;22;20482;-76
2022/12/08 17:31:51;;;;;;;17.73;13.50;;;;;;;;;;6336806;22;20476;-76